Time;durP1;ratioP1;P1;durP2;ratioP2;P2;SDS_P1;SDS_P2;PMS_P1;PMS_P2;Temp;Humidity;BMP_temperature;BMP_pressure;BME280_temperature;BME280_humidity;BME280_pressure;Samples;Min_cycle;Max_cycle;Signal;HPM_P1;HPM_P2
2022/11/02 00:01:29;;;;;;;;;;;;;;;13.66;72.20;101313.78;5046680;28;19999;-58
2022/11/02 00:03:54;;;;;;;;;;;;;;;13.70;72.18;101311.56;5045852;28;19951;-59
2022/11/02 00:06:19;;;;;;;;;;;;;;;13.66;72.08;101315.63;5047176;28;20308;-58
2022/11/02 00:08:45;;;;;;;;;;;;;;;13.69;72.72;101320.59;5045509;28;19999;-59
2022/11/02 00:11:10;;;;;;;;;;;;;;;13.65;72.74;101346.81;5047182;28;19923;-59
2022/11/02 00:13:35;;;;;;;;;;;;;;;13.53;73.78;101342.88;5047100;28;20534;-58
2022/11/02 00:16:04;;;;;;;;;;;;;;;13.37;74.61;101346.50;5050518;28;19932;-59
2022/11/02 00:18:31;;;;;;;;;;;;;;;13.30;75.72;101329.56;5040872;28;19921;-59
2022/11/02 00:20:56;;;;;;;;;;;;;;;13.21;75.86;101323.41;5047179;28;19924;-59
2022/11/02 00:23:22;;;;;;;;;;;;;;;13.25;76.04;101323.88;5049833;28;19916;-59
2022/11/02 00:25:49;;;;;;;;;;;;;;;13.20;76.92;101318.25;5049194;28;19940;-59
2022/11/02 00:28:15;;;;;;;;;;;;;;;13.13;77.33;101323.44;5047123;28;20495;-59
2022/11/02 00:30:40;;;;;;;;;;;;;;;13.14;77.25;101325.09;5047418;28;19913;-59
2022/11/02 00:33:05;;;;;;;;;;;;;;;13.07;77.53;101323.31;5038822;28;19917;-59
2022/11/02 00:35:32;;;;;;;;;;;;;;;12.97;78.16;101318.19;5047585;28;19936;-59
2022/11/02 00:37:57;;;;;;;;;;;;;;;12.92;78.90;101320.53;5047231;28;19917;-59
2022/11/02 00:40:22;;;;;;;;;;;;;;;12.89;78.59;101319.06;5047558;28;19924;-59
2022/11/02 00:42:47;;;;;;;;;;;;;;;12.89;78.78;101320.88;5049573;28;19917;-59
2022/11/02 00:45:12;;;;;;;;;;;;;;;12.94;78.66;101316.69;5048540;28;19913;-58
2022/11/02 00:47:38;;;;;;;;;;;;;;;12.99;78.12;101327.66;5046352;28;20343;-59
2022/11/02 00:50:03;;;;;;;;;;;;;;;13.05;77.32;101334.16;5045896;28;20003;-59
2022/11/02 00:52:28;;;;;;;;;;;;;;;13.14;76.55;101335.75;5043509;28;19924;-59
2022/11/02 00:54:53;;;;;;;;;;;;;;;13.27;75.65;101330.69;5047308;28;20412;-59
2022/11/02 00:57:19;;;;;;;;;;;;;;;13.35;74.59;101329.03;5043853;28;19916;-59
2022/11/02 00:59:44;;;;;;;;;;;;;;;13.38;73.98;101339.34;5046833;28;20308;-59
2022/11/02 01:02:09;;;;;;;;;;;;;;;13.37;73.51;101335.84;5048084;28;20327;-58
2022/11/02 01:04:34;;;;;;;;;;;;;;;13.39;73.19;101347.16;5044763;28;19998;-58
2022/11/02 01:07:00;;;;;;;;;;;;;;;13.29;72.57;101338.53;5046348;28;20288;-59
2022/11/02 01:09:26;;;;;;;;;;;;;;;13.33;72.63;101345.19;5053802;28;20066;-59
2022/11/02 01:11:51;;;;;;;;;;;;;;;13.29;72.29;101343.88;5052849;28;20592;-59
2022/11/02 01:14:16;;;;;;;;;;;;;;;13.32;72.49;101357.72;5043619;28;19916;-59
2022/11/02 01:16:43;;;;;;;;;;;;;;;13.31;72.26;101360.56;5044134;28;20050;-58
2022/11/02 01:19:09;;;;;;;;;;;;;;;13.26;71.77;101352.22;5045535;28;20387;-58
2022/11/02 01:21:34;;;;;;;;;;;;;;;13.21;71.97;101370.59;5049236;28;19917;-60
2022/11/02 01:23:59;;;;;;;;;;;;;;;13.18;71.95;101358.44;5048405;28;19928;-59
2022/11/02 01:26:24;;;;;;;;;;;;;;;13.13;71.83;101360.78;5050593;28;20351;-59
2022/11/02 01:28:51;;;;;;;;;;;;;;;13.09;71.88;101367.47;5048636;28;19927;-58
2022/11/02 01:31:17;;;;;;;;;;;;;;;13.06;71.48;101361.66;5051165;28;20403;-59
2022/11/02 01:33:45;;;;;;;;;;;;;;;13.06;71.56;101365.16;5049680;28;19956;-59
2022/11/02 01:36:11;;;;;;;;;;;;;;;13.02;71.59;101366.50;5050783;28;20582;-60
2022/11/02 01:38:36;;;;;;;;;;;;;;;12.95;71.95;101373.50;5050866;28;19977;-59
2022/11/02 01:41:01;;;;;;;;;;;;;;;12.92;71.92;101371.19;5049267;28;19917;-58
2022/11/02 01:43:30;;;;;;;;;;;;;;;12.91;71.91;101372.19;5045291;28;20066;-60
2022/11/02 01:46:06;;;;;;;;;;;;;;;12.91;71.71;101370.34;5050296;28;19924;-58
2022/11/02 01:48:33;;;;;;;;;;;;;;;12.87;71.59;101373.56;5043620;28;20023;-59
2022/11/02 01:51:00;;;;;;;;;;;;;;;12.84;71.61;101372.06;5046775;28;19959;-59
2022/11/02 01:53:25;;;;;;;;;;;;;;;12.84;71.50;101379.22;5047784;28;20001;-59
2022/11/02 01:55:50;;;;;;;;;;;;;;;12.80;71.31;101378.75;5047796;28;19929;-59
2022/11/02 01:58:16;;;;;;;;;;;;;;;12.82;71.18;101378.56;5048796;28;19947;-59
2022/11/02 02:00:41;;;;;;;;;;;;;;;12.82;71.26;101378.56;5049183;28;19924;-58
2022/11/02 02:03:17;;;;;;;;;;;;;;;12.80;70.82;101373.41;5047556;28;19933;-59
2022/11/02 02:05:47;;;;;;;;;;;;;;;12.74;71.51;101382.09;5049505;28;19942;-59
2022/11/02 02:08:14;;;;;;;;;;;;;;;12.37;73.13;101388.81;5045816;28;20008;-60
2022/11/02 02:10:40;;;;;;;;;;;;;;;11.75;75.56;101390.31;5050322;28;20463;-59
2022/11/02 02:13:06;;;;;;;;;;;;;;;11.53;77.26;101378.47;5049992;28;19923;-58
2022/11/02 02:15:38;;;;;;;;;;;;;;;11.43;78.30;101377.78;5049520;28;19936;-59
2022/11/02 02:18:16;;;;;;;;;;;;;;;11.49;78.72;101399.22;5048200;28;20075;-59
2022/11/02 02:21:04;;;;;;;;;;;;;;;11.60;78.25;101378.66;5046957;28;19921;-59
2022/11/02 02:23:48;;;;;;;;;;;;;;;11.65;78.08;101387.81;5044909;28;19917;-58
2022/11/02 02:26:31;;;;;;;;;;;;;;;11.67;78.20;101390.31;5049503;28;19913;-58
2022/11/02 02:29:01;;;;;;;;;;;;;;;11.67;77.57;101385.81;5050798;28;19916;-59
2022/11/02 02:31:33;;;;;;;;;;;;;;;11.74;76.78;101385.97;5049541;28;19927;-59
2022/11/02 02:34:13;;;;;;;;;;;;;;;11.76;76.37;101379.50;5055540;28;19923;-60
2022/11/02 02:36:57;;;;;;;;;;;;;;;11.85;75.53;101383.00;5047334;28;19975;-58
2022/11/02 02:39:28;;;;;;;;;;;;;;;11.94;75.34;101384.69;5046119;28;20011;-59
2022/11/02 02:42:00;;;;;;;;;;;;;;;11.95;74.99;101388.19;5051804;28;19971;-58
2022/11/02 02:44:28;;;;;;;;;;;;;;;11.96;74.88;101381.88;5049033;28;20018;-59
2022/11/02 02:47:01;;;;;;;;;;;;;;;11.99;74.59;101389.53;5045908;28;20331;-58
2022/11/02 02:49:39;;;;;;;;;;;;;;;11.98;73.99;101398.50;5043827;28;19924;-58
2022/11/02 02:52:05;;;;;;;;;;;;;;;11.97;74.05;101394.19;5043268;28;19921;-59
2022/11/02 02:54:31;;;;;;;;;;;;;;;11.98;73.61;101395.84;5049407;28;20318;-58
2022/11/02 02:57:00;;;;;;;;;;;;;;;11.97;73.66;101392.34;5051059;28;19917;-58
2022/11/02 02:59:28;;;;;;;;;;;;;;;11.93;73.93;101393.69;5045849;28;19917;-59
2022/11/02 03:01:54;;;;;;;;;;;;;;;11.89;73.60;101395.03;5051598;28;19947;-58
2022/11/02 03:04:19;;;;;;;;;;;;;;;11.93;73.87;101395.50;5047149;28;19921;-59
2022/11/02 03:06:50;;;;;;;;;;;;;;;11.91;73.68;101403.66;5049546;28;19919;-59
2022/11/02 03:09:19;;;;;;;;;;;;;;;11.91;73.58;101393.03;5042470;28;20277;-58
2022/11/02 03:12:00;;;;;;;;;;;;;;;11.97;73.69;101400.34;5047977;28;19921;-58
2022/11/02 03:14:25;;;;;;;;;;;;;;;11.99;73.60;101401.00;5041452;28;20078;-59
2022/11/02 03:17:09;;;;;;;;;;;;;;;11.99;73.29;101393.00;5044310;28;20432;-58
2022/11/02 03:19:53;;;;;;;;;;;;;;;12.02;73.09;101392.69;5043252;28;20363;-58
2022/11/02 03:22:21;;;;;;;;;;;;;;;11.99;73.44;101401.00;5045641;28;19918;-58
2022/11/02 03:24:52;;;;;;;;;;;;;;;11.95;73.42;101410.31;5045871;28;19924;-58
2022/11/02 03:27:21;;;;;;;;;;;;;;;11.95;73.25;101402.34;5045360;28;19970;-58
2022/11/02 03:29:52;;;;;;;;;;;;;;;11.97;73.04;101418.97;5045353;28;19917;-58
2022/11/02 03:32:22;;;;;;;;;;;;;;;12.00;73.17;101413.31;5048211;28;19971;-58
2022/11/02 03:34:50;;;;;;;;;;;;;;;12.04;72.76;101416.47;5045569;28;19924;-58
2022/11/02 03:37:18;;;;;;;;;;;;;;;12.03;72.68;101426.28;5045109;28;19936;-59
2022/11/02 03:39:56;;;;;;;;;;;;;;;12.09;72.22;101408.81;5048985;28;19917;-58
2022/11/02 03:42:23;;;;;;;;;;;;;;;12.07;72.44;101419.63;5047450;28;19921;-58
2022/11/02 03:44:52;;;;;;;;;;;;;;;12.08;72.43;101429.28;5046943;28;20019;-59
2022/11/02 03:47:19;;;;;;;;;;;;;;;12.04;72.38;101416.47;5048019;28;19917;-59
2022/11/02 03:49:46;;;;;;;;;;;;;;;12.03;72.19;101423.63;5041597;28;19917;-58
2022/11/02 03:52:14;;;;;;;;;;;;;;;11.97;72.21;101420.81;5051183;28;20167;-59
2022/11/02 03:54:47;;;;;;;;;;;;;;;12.02;71.95;101434.44;5042532;28;19925;-58
2022/11/02 03:57:17;;;;;;;;;;;;;;;12.03;71.78;101426.28;5042960;28;19964;-58
2022/11/02 03:59:43;;;;;;;;;;;;;;;12.04;72.11;101435.09;5052736;28;19917;-57
2022/11/02 04:02:09;;;;;;;;;;;;;;;12.01;72.14;101438.09;5046356;28;19916;-58
2022/11/02 04:04:34;;;;;;;;;;;;;;;11.99;71.86;101448.09;5045175;28;20362;-57
2022/11/02 04:06:59;;;;;;;;;;;;;;;12.01;71.76;101446.09;5054791;28;20020;-58
2022/11/02 04:09:24;;;;;;;;;;;;;;;12.05;72.02;101447.41;5053042;28;20315;-58
2022/11/02 04:14:36;;;;;;;;;;;;;;;11.99;72.10;101446.25;5046671;28;20391;-58
2022/11/02 04:19:45;;;;;;;;;;;;;;;11.98;72.10;101473.03;5046910;28;20396;-58
2022/11/02 04:27:38;;;;;;;;;;;;;;;11.96;72.19;101481.19;5048501;28;19940;-58
2022/11/02 04:30:04;;;;;;;;;;;;;;;11.94;72.63;101479.69;5044918;28;20361;-58
2022/11/02 04:35:13;;;;;;;;;;;;;;;11.91;72.87;101501.31;5042646;28;20379;-58
2022/11/02 04:40:23;;;;;;;;;;;;;;;11.89;72.93;101490.00;5047918;28;19919;-58
2022/11/02 04:42:48;;;;;;;;;;;;;;;11.89;73.16;101501.47;5046331;28;19916;-58
2022/11/02 04:45:13;;;;;;;;;;;;;;;11.92;72.80;101508.31;5049155;28;19913;-58
2022/11/02 04:47:38;;;;;;;;;;;;;;;11.91;73.15;101514.63;5047558;28;20395;-57
2022/11/02 04:50:03;;;;;;;;;;;;;;;11.94;73.00;101519.63;5046625;28;19952;-58
2022/11/02 04:52:29;;;;;;;;;;;;;;;11.92;73.25;101529.59;5046898;28;20553;-58
2022/11/02 04:54:54;;;;;;;;;;;;;;;11.93;72.76;101521.44;5053349;28;19963;-59
2022/11/02 04:57:19;;;;;;;;;;;;;;;11.96;72.76;101539.75;5050849;28;19921;-58
2022/11/02 04:59:44;;;;;;;;;;;;;;;11.98;72.55;101521.78;5051362;28;19963;-59
2022/11/02 05:02:09;;;;;;;;;;;;;;;11.97;72.64;101535.25;5051665;28;20368;-58
2022/11/02 05:04:34;;;;;;;;;;;;;;;11.94;72.72;101543.56;5050874;28;19924;-58
2022/11/02 05:07:00;;;;;;;;;;;;;;;11.89;72.93;101540.56;5051787;28;20284;-59
2022/11/02 05:09:25;;;;;;;;;;;;;;;11.87;72.84;101558.53;5055103;28;19974;-58
2022/11/02 05:11:50;;;;;;;;;;;;;;;11.92;72.78;101570.34;5053892;28;20369;-58
2022/11/02 05:14:15;;;;;;;;;;;;;;;11.91;72.86;101563.38;5050461;28;19916;-58
2022/11/02 05:16:40;;;;;;;;;;;;;;;11.90;73.06;101567.03;5050847;28;19925;-59
2022/11/02 05:19:05;;;;;;;;;;;;;;;11.90;73.06;101579.50;5049728;28;20386;-58
2022/11/02 05:21:31;;;;;;;;;;;;;;;11.91;73.20;101563.38;5055480;28;19917;-58
2022/11/02 05:23:56;;;;;;;;;;;;;;;11.94;72.71;101579.00;5046667;28;19917;-58
2022/11/02 05:26:21;;;;;;;;;;;;;;;11.92;72.86;101581.00;5047885;28;19922;-58
2022/11/02 05:28:46;;;;;;;;;;;;;;;11.91;72.87;101592.63;5049270;28;20418;-58
2022/11/02 05:31:11;;;;;;;;;;;;;;;11.88;72.78;101598.28;5049008;28;19978;-58
2022/11/02 05:33:36;;;;;;;;;;;;;;;11.85;72.93;101595.09;5049082;28;19916;-59
2022/11/02 05:36:02;;;;;;;;;;;;;;;11.82;72.86;101609.56;5050132;28;19982;-59
2022/11/02 05:38:27;;;;;;;;;;;;;;;11.75;73.36;101613.81;5052310;28;19917;-58
2022/11/02 05:40:53;;;;;;;;;;;;;;;11.65;73.46;101611.28;5049599;28;19916;-58
2022/11/02 05:43:19;;;;;;;;;;;;;;;11.58;73.29;101614.75;5050348;28;20373;-58
2022/11/02 05:45:49;;;;;;;;;;;;;;;11.57;73.64;101615.75;5051175;28;19913;-57
2022/11/02 05:48:14;;;;;;;;;;;;;;;11.57;73.19;101603.28;5044602;28;19977;-58
2022/11/02 05:50:40;;;;;;;;;;;;;;;11.53;73.56;101611.69;5046976;28;19952;-58
2022/11/02 05:53:05;;;;;;;;;;;;;;;11.48;73.68;101617.50;5047039;28;20492;-58
2022/11/02 05:55:30;;;;;;;;;;;;;;;11.40;73.48;101628.09;5050678;28;19924;-58
2022/11/02 05:57:55;;;;;;;;;;;;;;;11.36;73.61;101630.22;5049142;28;20506;-58
2022/11/02 06:00:21;;;;;;;;;;;;;;;11.29;73.90;101636.34;5046307;28;19923;-57
2022/11/02 06:02:47;;;;;;;;;;;;;;;11.30;74.20;101649.47;5051204;28;20033;-59
2022/11/02 06:05:12;;;;;;;;;;;;;;;11.25;74.24;101634.97;5047992;28;20338;-58
2022/11/02 06:07:37;;;;;;;;;;;;;;;11.21;74.15;101649.56;5048729;28;19920;-58
2022/11/02 06:10:03;;;;;;;;;;;;;;;11.20;74.39;101645.22;5048555;28;20597;-58
2022/11/02 06:12:28;;;;;;;;;;;;;;;11.15;74.44;101657.16;5048585;28;19967;-58
2022/11/02 06:14:53;;;;;;;;;;;;;;;11.06;74.82;101678.53;5048628;28;19943;-59
2022/11/02 06:17:18;;;;;;;;;;;;;;;11.03;74.91;101673.53;5054246;28;20027;-59
2022/11/02 06:19:44;;;;;;;;;;;;;;;11.00;74.93;101658.72;5052912;28;19955;-58
2022/11/02 06:22:09;;;;;;;;;;;;;;;10.97;74.94;101674.09;5047901;28;21157;-58
2022/11/02 06:24:35;;;;;;;;;;;;;;;10.95;75.40;101690.19;5046664;28;19971;-59
2022/11/02 06:27:00;;;;;;;;;;;;;;;10.91;75.54;101694.16;5050097;28;19959;-58
2022/11/02 06:29:25;;;;;;;;;;;;;;;10.87;75.45;101695.44;5050641;28;19920;-58
2022/11/02 06:31:50;;;;;;;;;;;;;;;10.82;75.89;101695.06;5048992;28;19924;-58
2022/11/02 06:34:15;;;;;;;;;;;;;;;10.76;75.97;101701.00;5047005;28;20388;-57
2022/11/02 06:36:40;;;;;;;;;;;;;;;10.72;76.23;101711.09;5049507;28;19928;-59
2022/11/02 06:39:05;;;;;;;;;;;;;;;10.71;76.25;101709.44;5046920;28;20531;-58
2022/11/02 06:41:31;;;;;;;;;;;;;;;10.72;76.32;101713.75;5047680;28;19928;-58
2022/11/02 06:43:56;;;;;;;;;;;;;;;10.77;76.61;101723.94;5048330;28;19932;-57
2022/11/02 06:46:21;;;;;;;;;;;;;;;10.74;76.58;101733.03;5045306;28;19924;-58
2022/11/02 06:48:47;;;;;;;;;;;;;;;10.74;76.43;101748.97;5050102;28;19920;-59
2022/11/02 06:51:12;;;;;;;;;;;;;;;10.77;76.49;101737.22;5049355;28;19916;-58
2022/11/02 06:53:37;;;;;;;;;;;;;;;10.79;76.61;101756.50;5044112;28;20002;-58
2022/11/02 06:56:02;;;;;;;;;;;;;;;10.76;76.38;101757.63;5048857;28;19952;-58
2022/11/02 06:58:28;;;;;;;;;;;;;;;10.76;76.42;101765.59;5055146;28;19977;-58
2022/11/02 07:00:57;;;;;;;;;;;;;;;10.74;76.45;101769.38;5051057;28;20368;-59
2022/11/02 07:03:22;;;;;;;;;;;;;;;10.71;76.70;101782.97;5056101;28;19917;-58
2022/11/02 07:05:51;;;;;;;;;;;;;;;10.70;76.73;101800.72;5048419;28;19999;-58
2022/11/02 07:08:16;;;;;;;;;;;;;;;10.69;76.38;101801.69;5049728;28;19912;-58
2022/11/02 07:10:41;;;;;;;;;;;;;;;10.72;76.40;101798.75;5047104;28;19927;-58
2022/11/02 07:13:06;;;;;;;;;;;;;;;10.72;76.50;101804.06;5047474;28;20334;-59
2022/11/02 07:15:31;;;;;;;;;;;;;;;10.69;76.38;101817.63;5045895;28;20008;-59
2022/11/02 07:17:57;;;;;;;;;;;;;;;10.67;76.48;101822.25;5047963;28;20020;-58
2022/11/02 07:20:22;;;;;;;;;;;;;;;10.68;76.56;101825.75;5047406;28;20323;-58
2022/11/02 07:22:54;;;;;;;;;;;;;;;10.68;76.55;101831.91;5048265;28;19959;-58
2022/11/02 07:25:19;;;;;;;;;;;;;;;10.70;76.59;101832.63;5049840;28;19924;-59
2022/11/02 07:27:44;;;;;;;;;;;;;;;10.71;76.63;101836.94;5041926;28;19913;-57
2022/11/02 07:30:09;;;;;;;;;;;;;;;10.74;76.70;101852.59;5047644;28;20513;-58
2022/11/02 07:32:39;;;;;;;;;;;;;;;10.78;76.54;101832.72;5046921;28;19916;-57
2022/11/02 07:35:05;;;;;;;;;;;;;;;10.80;76.34;101843.19;5046259;28;19979;-59
2022/11/02 07:37:30;;;;;;;;;;;;;;;10.88;76.35;101848.59;5048207;28;19919;-58
2022/11/02 07:39:56;;;;;;;;;;;;;;;10.89;76.22;101852.91;5040469;28;20003;-58
2022/11/02 07:42:21;;;;;;;;;;;;;;;10.92;76.51;101847.31;5048058;28;20410;-58
2022/11/02 07:44:46;;;;;;;;;;;;;;;10.93;76.08;101853.47;5046871;28;19913;-58
2022/11/02 07:47:11;;;;;;;;;;;;;;;10.95;76.37;101857.63;5049129;28;19921;-58
2022/11/02 07:49:36;;;;;;;;;;;;;;;10.97;76.52;101868.13;5043603;28;19913;-59
2022/11/02 07:52:02;;;;;;;;;;;;;;;11.01;76.43;101869.53;5047136;28;19920;-59
2022/11/02 07:54:27;;;;;;;;;;;;;;;11.04;76.40;101875.38;5048286;28;20479;-58
2022/11/02 07:56:52;;;;;;;;;;;;;;;11.06;76.12;101867.25;5047897;28;19942;-58
2022/11/02 07:59:17;;;;;;;;;;;;;;;11.07;76.45;101867.09;5045984;28;19917;-59
2022/11/02 08:01:42;;;;;;;;;;;;;;;11.10;76.50;101885.41;5040211;28;19999;-58
2022/11/02 08:04:07;;;;;;;;;;;;;;;11.10;76.15;101888.06;5046141;28;19967;-58
2022/11/02 08:06:33;;;;;;;;;;;;;;;11.12;76.63;101885.25;5043551;28;20003;-57
2022/11/02 08:08:58;;;;;;;;;;;;;;;11.11;76.62;101886.25;5048356;28;19923;-58
2022/11/02 08:11:23;;;;;;;;;;;;;;;11.10;76.57;101881.91;5050868;28;19940;-58
2022/11/02 08:13:49;;;;;;;;;;;;;;;11.11;76.38;101892.41;5042600;28;19924;-58
2022/11/02 08:16:14;;;;;;;;;;;;;;;11.15;76.54;101890.28;5045501;28;19916;-58
2022/11/02 08:18:39;;;;;;;;;;;;;;;11.17;76.52;101893.63;5041483;28;20395;-59
2022/11/02 08:21:05;;;;;;;;;;;;;;;11.21;76.43;101888.84;5043057;28;19924;-59
2022/11/02 08:23:30;;;;;;;;;;;;;;;11.21;76.84;101892.34;5044309;28;19917;-59
2022/11/02 08:25:57;;;;;;;;;;;;;;;11.19;76.37;101902.28;5042336;28;19916;-58
2022/11/02 08:28:23;;;;;;;;;;;;;;;11.20;76.41;101911.09;5050126;28;19917;-58
2022/11/02 08:30:49;;;;;;;;;;;;;;;11.21;76.54;101904.78;5045482;28;19924;-58
2022/11/02 08:33:15;;;;;;;;;;;;;;;11.24;76.54;101904.50;5051838;28;19913;-58
2022/11/02 08:35:41;;;;;;;;;;;;;;;11.23;76.45;101906.31;5055367;28;20579;-58
2022/11/02 08:38:07;;;;;;;;;;;;;;;11.26;76.62;101906.03;5048826;28;19924;-58
2022/11/02 08:40:33;;;;;;;;;;;;;;;11.27;76.21;101910.34;5043136;28;19921;-59
2022/11/02 08:42:59;;;;;;;;;;;;;;;11.29;76.58;101926.19;5051041;28;19925;-58
2022/11/02 08:45:28;;;;;;;;;;;;;;;11.32;76.32;101931.19;5045697;28;19944;-58
2022/11/02 08:47:53;;;;;;;;;;;;;;;11.32;76.36;101924.06;5052595;28;20090;-59
2022/11/02 08:50:20;;;;;;;;;;;;;;;11.33;76.42;101928.41;5056990;28;20051;-59
2022/11/02 08:52:45;;;;;;;;;;;;;;;11.33;76.00;101933.72;5045632;28;20454;-58
2022/11/02 08:55:11;;;;;;;;;;;;;;;11.37;76.14;101959.03;5053640;28;19959;-60
2022/11/02 08:57:45;;;;;;;;;;;;;;;11.45;76.42;101944.97;5050418;28;19920;-59
2022/11/02 09:00:11;;;;;;;;;;;;;;;11.50;76.09;101942.69;5043642;28;20017;-59
2022/11/02 09:02:36;;;;;;;;;;;;;;;11.54;76.00;101937.91;5058641;28;19951;-58
2022/11/02 09:05:01;;;;;;;;;;;;;;;11.57;75.99;101941.13;5051601;28;19920;-59
2022/11/02 09:07:26;;;;;;;;;;;;;;;11.62;75.44;101938.00;5053461;28;20545;-58
2022/11/02 09:09:51;;;;;;;;;;;;;;;11.64;74.85;101944.03;5053760;28;19956;-58
2022/11/02 09:12:17;;;;;;;;;;;;;;;11.64;74.99;101938.69;5050689;28;20327;-58
2022/11/02 09:14:42;;;;;;;;;;;;;;;11.68;74.76;101942.72;5048119;28;19921;-58
2022/11/02 09:17:07;;;;;;;;;;;;;;;11.70;75.00;101946.91;5050118;28;19917;-58
2022/11/02 09:19:32;;;;;;;;;;;;;;;11.74;74.92;101952.75;5045843;28;19921;-58
2022/11/02 09:21:57;;;;;;;;;;;;;;;11.75;74.42;101946.44;5054000;28;19952;-59
2022/11/02 09:24:22;;;;;;;;;;;;;;;11.78;74.92;101956.81;5051402;28;19936;-58
2022/11/02 09:26:48;;;;;;;;;;;;;;;11.84;74.50;101956.22;5053730;28;19916;-60
2022/11/02 09:29:13;;;;;;;;;;;;;;;11.87;74.19;101958.59;5049813;28;19939;-58
2022/11/02 09:31:38;;;;;;;;;;;;;;;11.86;73.95;101951.59;5047612;28;20422;-57
2022/11/02 09:34:03;;;;;;;;;;;;;;;11.90;74.27;101963.63;5051089;28;20019;-59
2022/11/02 09:36:29;;;;;;;;;;;;;;;11.92;74.45;101968.78;5050668;28;19916;-58
2022/11/02 09:38:54;;;;;;;;;;;;;;;11.94;73.81;101951.69;5049742;28;20016;-60
2022/11/02 09:41:24;;;;;;;;;;;;;;;12.01;73.81;101958.06;5048084;28;19916;-58
2022/11/02 09:44:15;;;;;;;;;;;;;;;12.04;73.73;101971.06;5052984;28;20016;-58
2022/11/02 09:46:43;;;;;;;;;;;;;;;12.07;73.37;101965.44;5048990;28;19916;-58
2022/11/02 09:49:11;;;;;;;;;;;;;;;12.13;73.29;101963.97;5053539;28;20376;-60
2022/11/02 09:51:39;;;;;;;;;;;;;;;12.19;73.32;101960.72;5053947;28;19919;-58
2022/11/02 09:54:13;;;;;;;;;;;;;;;12.24;73.58;101962.91;5050380;28;19916;-57
2022/11/02 09:56:39;;;;;;;;;;;;;;;12.29;72.71;101968.63;5049805;28;19932;-59
2022/11/02 09:59:11;;;;;;;;;;;;;;;12.29;72.79;101974.78;5049570;28;19916;-60
2022/11/02 10:01:49;;;;;;;;;;;;;;;12.33;72.56;101981.47;5051314;28;19913;-58
2022/11/02 10:04:32;;;;;;;;;;;;;;;12.39;72.71;101988.00;5042734;28;19923;-59
2022/11/02 10:07:16;;;;;;;;;;;;;;;12.35;72.56;101987.47;5049604;28;20383;-59
2022/11/02 10:09:52;;;;;;;;;;;;;;;12.40;72.53;101995.00;5046061;28;19916;-60
2022/11/02 10:12:30;;;;;;;;;;;;;;;12.44;71.84;101996.41;5049995;28;20027;-59
2022/11/02 10:14:55;;;;;;;;;;;;;;;12.50;72.08;102008.25;5048992;28;19940;-59
2022/11/02 10:17:22;;;;;;;;;;;;;;;12.54;72.16;102013.13;5050232;28;19932;-59
2022/11/02 10:19:52;;;;;;;;;;;;;;;12.60;72.00;102007.16;5047766;28;19917;-58
2022/11/02 10:22:18;;;;;;;;;;;;;;;12.65;71.50;102023.50;5050944;28;20423;-58
2022/11/02 10:24:45;;;;;;;;;;;;;;;12.65;71.76;102012.84;5050004;28;20018;-58
2022/11/02 10:27:40;;;;;;;;;;;;;;;12.62;71.57;102020.31;5049465;28;19924;-59
2022/11/02 10:30:05;;;;;;;;;;;;;;;12.64;71.30;102010.34;5043894;28;19924;-58
2022/11/02 10:32:31;;;;;;;;;;;;;;;12.63;71.29;102003.34;5050453;28;19939;-60
2022/11/02 10:34:56;;;;;;;;;;;;;;;12.67;71.00;102007.38;5047809;28;19958;-59
2022/11/02 10:37:27;;;;;;;;;;;;;;;12.73;70.72;102000.59;5048795;28;20016;-58
2022/11/02 10:40:06;;;;;;;;;;;;;;;12.79;70.40;102007.97;5041961;28;19969;-59
2022/11/02 10:42:49;;;;;;;;;;;;;;;12.89;70.33;102011.34;5049263;28;20397;-59
2022/11/02 10:45:20;;;;;;;;;;;;;;;12.94;69.80;102025.03;5039997;28;19913;-59
2022/11/02 10:48:03;;;;;;;;;;;;;;;12.86;69.13;102033.84;5051511;28;19919;-58
2022/11/02 10:50:51;;;;;;;;;;;;;;;12.90;69.53;102035.19;5048769;28;19955;-58
2022/11/02 10:53:18;;;;;;;;;;;;;;;12.98;69.03;102037.06;5039956;28;19974;-59
2022/11/02 10:55:53;;;;;;;;;;;;;;;13.01;69.08;102029.63;5058919;28;20391;-58
2022/11/02 10:58:20;;;;;;;;;;;;;;;12.97;68.67;102030.06;5049662;28;19940;-60
2022/11/02 11:00:46;;;;;;;;;;;;;;;13.03;69.09;102029.47;5047408;28;19975;-58
2022/11/02 11:03:13;;;;;;;;;;;;;;;13.10;69.02;102035.00;5049088;28;19920;-59
2022/11/02 11:05:58;;;;;;;;;;;;;;;13.21;68.52;102040.91;5047316;28;19970;-58
2022/11/02 11:08:32;;;;;;;;;;;;;;;13.27;67.70;102032.28;5046159;28;19916;-58
2022/11/02 11:11:09;;;;;;;;;;;;;;;13.39;67.65;102038.19;5048427;28;19913;-58
2022/11/02 11:13:35;;;;;;;;;;;;;;;13.53;68.03;102034.06;5048819;28;19928;-59
2022/11/02 11:16:02;;;;;;;;;;;;;;;13.62;67.51;102030.44;5055862;28;19916;-58
2022/11/02 11:18:28;;;;;;;;;;;;;;;13.65;65.95;102024.78;5047342;28;19931;-58
2022/11/02 11:20:54;;;;;;;;;;;;;;;13.67;65.93;102033.47;5047236;28;19921;-58
2022/11/02 11:23:20;;;;;;;;;;;;;;;13.71;65.54;102036.66;5047053;28;20299;-58
2022/11/02 11:25:57;;;;;;;;;;;;;;;13.72;65.35;102038.31;5046195;28;19913;-58
2022/11/02 11:28:24;;;;;;;;;;;;;;;13.81;65.02;102035.50;5058578;28;20419;-58
2022/11/02 11:31:01;;;;;;;;;;;;;;;13.93;65.39;102036.88;5052592;28;20365;-59
2022/11/02 11:33:26;;;;;;;;;;;;;;;13.99;63.94;102024.72;5049481;28;19920;-59
2022/11/02 11:35:51;;;;;;;;;;;;;;;13.99;63.59;102022.03;5052985;28;19921;-59
2022/11/02 11:38:19;;;;;;;;;;;;;;;14.03;62.87;102014.53;5049801;28;19920;-59
2022/11/02 11:40:52;;;;;;;;;;;;;;;14.16;62.92;102018.38;5046891;28;19913;-58
2022/11/02 11:43:18;;;;;;;;;;;;;;;14.32;62.36;102006.88;5046421;28;19956;-57
2022/11/02 11:45:54;;;;;;;;;;;;;;;14.37;61.24;102004.53;5051084;28;19962;-59
2022/11/02 11:48:26;;;;;;;;;;;;;;;14.36;60.94;102002.88;5049248;28;19939;-58
2022/11/02 11:50:51;;;;;;;;;;;;;;;14.33;60.04;102013.88;5046571;28;20407;-59
2022/11/02 11:53:24;;;;;;;;;;;;;;;14.41;60.48;102024.56;5046048;28;19923;-59
2022/11/02 11:55:50;;;;;;;;;;;;;;;14.46;59.43;102019.63;5039536;28;19918;-59
2022/11/02 11:58:22;;;;;;;;;;;;;;;14.46;59.73;102018.78;5043446;28;19924;-58
2022/11/02 12:01:00;;;;;;;;;;;;;;;14.47;59.05;102031.97;5040845;28;19923;-59
2022/11/02 12:03:26;;;;;;;;;;;;;;;14.41;58.91;102026.41;5051872;28;20331;-59
2022/11/02 12:06:10;;;;;;;;;;;;;;;14.28;59.15;102040.28;5049881;28;19917;-59
2022/11/02 12:08:35;;;;;;;;;;;;;;;14.34;58.71;102030.75;5042538;28;19967;-58
2022/11/02 12:11:23;;;;;;;;;;;;;;;14.48;58.96;102017.63;5044796;28;20412;-58
2022/11/02 12:13:48;;;;;;;;;;;;;;;14.48;58.53;102028.31;5044054;28;19963;-58
2022/11/02 12:16:16;;;;;;;;;;;;;;;14.50;58.21;102010.25;5042149;28;19956;-60
2022/11/02 12:18:57;;;;;;;;;;;;;;;14.47;58.20;102021.28;5046715;28;20045;-58
2022/11/02 12:21:28;;;;;;;;;;;;;;;14.54;58.36;102002.75;5048127;28;19920;-59
2022/11/02 12:23:53;;;;;;;;;;;;;;;14.60;58.43;101996.72;5045243;28;19940;-59
2022/11/02 12:26:28;;;;;;;;;;;;;;;14.62;57.89;101996.53;5048080;28;19917;-59
2022/11/02 12:28:56;;;;;;;;;;;;;;;14.63;58.24;101996.38;5040685;28;19968;-59
2022/11/02 12:31:31;;;;;;;;;;;;;;;14.72;57.89;101984.66;5046401;28;19927;-58
2022/11/02 12:33:59;;;;;;;;;;;;;;;14.90;57.98;101978.28;5048114;28;20009;-59
2022/11/02 12:36:30;;;;;;;;;;;;;;;15.06;58.80;101979.06;5045473;28;20431;-59
2022/11/02 12:39:02;;;;;;;;;;;;;;;15.22;57.99;101971.97;5050680;28;20390;-59
2022/11/02 12:41:51;;;;;;;;;;;;;;;15.37;58.55;101978.28;5045001;28;19921;-59
2022/11/02 12:44:42;;;;;;;;;;;;;;;15.54;58.41;101977.19;5046297;28;19928;-58
2022/11/02 12:47:07;;;;;;;;;;;;;;;15.69;57.98;101970.13;5050642;28;19924;-59
2022/11/02 12:49:57;;;;;;;;;;;;;;;15.76;57.62;101971.06;5057669;28;19916;-59
2022/11/02 12:52:25;;;;;;;;;;;;;;;15.55;57.08;101964.63;5045723;28;19921;-59
2022/11/02 12:54:54;;;;;;;;;;;;;;;15.64;57.43;101977.03;5044383;28;19940;-59
2022/11/02 12:57:21;;;;;;;;;;;;;;;15.82;58.16;101968.69;5047260;28;20312;-59